createdAt,value
2023-01-08T00:00:18.166Z,-5.29
2023-01-08T00:02:50.094Z,-5.80
2023-01-08T00:05:19.667Z,-5.56
2023-01-08T00:07:49.196Z,-5.79
2023-01-08T00:10:20.078Z,-5.78
2023-01-08T00:12:49.421Z,-5.44
2023-01-08T00:15:18.855Z,-5.18
2023-01-08T00:17:47.987Z,-4.97
2023-01-08T00:20:17.525Z,-5.21
2023-01-08T00:22:50.297Z,-5.35
2023-01-08T00:25:22.065Z,-5.22
2023-01-08T00:27:51.491Z,-6.07
2023-01-08T00:30:20.952Z,-5.37
2023-01-08T00:32:50.299Z,-5.02
2023-01-08T00:35:19.529Z,-5.32
2023-01-08T00:37:51.203Z,-5.13
2023-01-08T00:40:22.352Z,-5.72
2023-01-08T00:42:51.751Z,-5.35
2023-01-08T00:45:21.290Z,-5.53
2023-01-08T00:47:52.142Z,-5.17
2023-01-08T00:50:22.143Z,-5.20
2023-01-08T00:52:51.347Z,-5.25
2023-01-08T00:55:21.947Z,-5.43
2023-01-08T00:57:51.642Z,-5.19
2023-01-08T01:00:20.898Z,-5.29
2023-01-08T01:02:50.107Z,-5.44
2023-01-08T01:05:19.272Z,-5.51
2023-01-08T01:07:48.681Z,-5.44
2023-01-08T01:10:18.459Z,-5.40
2023-01-08T01:12:49.052Z,-5.58
2023-01-08T01:15:20.355Z,-5.31
2023-01-08T01:17:50.205Z,-5.60
2023-01-08T01:20:20.466Z,-5.88
2023-01-08T01:22:53.754Z,-6.11
2023-01-08T01:25:25.118Z,-6.12
2023-01-08T01:27:55.826Z,-6.13
2023-01-08T01:30:25.039Z,-5.76
2023-01-08T01:32:54.201Z,-6.39
2023-01-08T01:35:23.761Z,-5.98
2023-01-08T01:38:07.823Z,-5.45
2023-01-08T01:40:49.046Z,-7.65
2023-01-08T01:43:49.235Z,-7.93
2023-01-08T01:46:44.563Z,-5.82
2023-01-08T01:49:20.715Z,-8.31
2023-01-08T01:51:53.588Z,-5.90
2023-01-08T01:54:39.554Z,-6.30
2023-01-08T01:57:09.953Z,-5.93
2023-01-08T01:59:40.811Z,-6.22
2023-01-08T02:02:10.690Z,-6.59
2023-01-08T02:04:40.736Z,-5.96
2023-01-08T02:07:17.565Z,-5.80
2023-01-08T02:09:53.700Z,-6.02
2023-01-08T02:12:28.003Z,-5.59
2023-01-08T02:15:08.583Z,-6.02
2023-01-08T02:17:46.930Z,-5.51
2023-01-08T02:20:21.246Z,-6.01
2023-01-08T02:23:07.895Z,-5.68
2023-01-08T02:26:06.014Z,-5.49
2023-01-08T02:28:41.452Z,-5.89
2023-01-08T02:31:13.231Z,-5.54
2023-01-08T02:33:45.762Z,-5.05
2023-01-08T02:36:39.809Z,-5.75
2023-01-08T02:39:23.822Z,-5.25
2023-01-08T02:42:06.771Z,-5.52
2023-01-08T02:44:56.825Z,-5.74
2023-01-08T02:47:32.110Z,-5.44
2023-01-08T02:50:10.164Z,-6.18
2023-01-08T02:52:46.900Z,-5.89
2023-01-08T02:55:18.647Z,-5.70
2023-01-08T02:57:50.089Z,-5.79
2023-01-08T03:00:21.235Z,-5.87
2023-01-08T03:02:54.497Z,-6.00
2023-01-08T03:05:27.890Z,-5.61
2023-01-08T03:07:57.799Z,-5.66
2023-01-08T03:10:30.124Z,-5.48
2023-01-08T03:13:06.032Z,-5.49
2023-01-08T03:15:42.963Z,-5.49
2023-01-08T03:18:16.319Z,-5.31
2023-01-08T03:20:47.483Z,-5.86
2023-01-08T03:23:19.160Z,-5.72
2023-01-08T03:25:51.628Z,-5.52
2023-01-08T03:28:30.292Z,-5.85
2023-01-08T03:31:01.109Z,-5.37
2023-01-08T03:33:32.822Z,-5.28
2023-01-08T03:36:05.217Z,-5.49
2023-01-08T03:38:41.790Z,-5.09
2023-01-08T03:41:13.824Z,-5.01
2023-01-08T03:43:44.469Z,-5.47
2023-01-08T03:46:17.717Z,-5.85
2023-01-08T03:48:48.201Z,-5.64
2023-01-08T03:51:18.922Z,-5.38
2023-01-08T03:53:49.153Z,-5.20
2023-01-08T03:56:22.493Z,-5.46
2023-01-08T03:58:53.330Z,-5.63
2023-01-08T04:01:25.027Z,-5.34
2023-01-08T04:03:54.389Z,-5.23
2023-01-08T04:06:23.694Z,-5.64
2023-01-08T04:08:52.876Z,-6.16
2023-01-08T04:11:25.153Z,-5.35
2023-01-08T04:13:55.867Z,-5.95
2023-01-08T04:16:25.150Z,-5.62
2023-01-08T04:18:54.216Z,-8.76
2023-01-08T04:21:32.427Z,-5.48
2023-01-08T04:24:09.126Z,-5.18
2023-01-08T04:26:40.363Z,-5.30
2023-01-08T04:29:12.239Z,-5.18
2023-01-08T04:31:41.891Z,-5.44
2023-01-08T04:34:11.398Z,-5.53
2023-01-08T04:36:40.596Z,-5.63
2023-01-08T04:39:09.895Z,-5.67
2023-01-08T04:41:39.994Z,-5.09
2023-01-08T04:44:11.179Z,-5.13
2023-01-08T04:46:40.427Z,-5.09
2023-01-08T04:49:09.839Z,-5.40
2023-01-08T04:51:39.234Z,-5.45
2023-01-08T04:54:08.741Z,-5.38
2023-01-08T04:56:38.129Z,-5.70
2023-01-08T04:59:07.316Z,-5.68
2023-01-08T05:01:37.699Z,-5.31
2023-01-08T05:04:07.311Z,-5.09
2023-01-08T05:06:36.741Z,-5.61
2023-01-08T05:09:05.872Z,-5.37
2023-01-08T05:11:37.510Z,-5.40
2023-01-08T05:14:07.169Z,-5.58
2023-01-08T05:16:37.921Z,-5.76
2023-01-08T05:19:07.444Z,-5.94
2023-01-08T05:21:37.041Z,-5.47
2023-01-08T05:24:06.686Z,-5.39
2023-01-08T05:26:36.003Z,-5.66
2023-01-08T05:29:05.502Z,-5.09
2023-01-08T05:31:35.034Z,-5.39
2023-01-08T05:34:06.026Z,-5.23
2023-01-08T05:36:35.483Z,-4.91
2023-01-08T05:39:05.267Z,-4.88
2023-01-08T05:41:34.837Z,-4.78
2023-01-08T05:44:04.018Z,-5.22
2023-01-08T05:46:33.270Z,-5.27
2023-01-08T05:49:17.029Z,-5.66
2023-01-08T05:51:46.706Z,-5.72
2023-01-08T05:54:16.222Z,-5.14
2023-01-08T05:56:45.618Z,-5.15
2023-01-08T05:59:17.442Z,-4.70
2023-01-08T06:01:46.987Z,-4.84
2023-01-08T06:04:18.524Z,-4.77
2023-01-08T06:06:48.063Z,-5.02
2023-01-08T06:09:20.899Z,-5.29
2023-01-08T06:11:52.459Z,-4.70
2023-01-08T06:14:26.697Z,-4.66
2023-01-08T06:16:58.154Z,-5.01
2023-01-08T06:19:28.832Z,-5.26
2023-01-08T06:21:58.338Z,-6.37
2023-01-08T06:24:27.801Z,-5.64
2023-01-08T06:26:57.522Z,-5.56
2023-01-08T06:29:26.914Z,-5.28
2023-01-08T06:31:59.000Z,-5.20
2023-01-08T06:34:32.671Z,-5.09
2023-01-08T06:37:03.054Z,-4.76
2023-01-08T06:39:33.497Z,-4.84
2023-01-08T06:42:02.931Z,-5.38
2023-01-08T06:44:32.617Z,-5.21
2023-01-08T06:47:02.035Z,-5.12
2023-01-08T06:49:32.799Z,-5.01
2023-01-08T06:52:02.213Z,-4.79
2023-01-08T06:54:31.207Z,-4.89
2023-01-08T06:57:01.433Z,-4.62
2023-01-08T06:59:34.748Z,-5.00
2023-01-08T07:02:05.702Z,-4.76
2023-01-08T07:04:37.813Z,-5.48
2023-01-08T07:07:27.845Z,-4.38
2023-01-08T07:10:20.061Z,-5.99
2023-01-08T07:12:50.093Z,-4.69
2023-01-08T07:15:19.541Z,-4.31
2023-01-08T07:17:49.125Z,-4.49
2023-01-08T07:20:20.185Z,-4.50
2023-01-08T07:22:52.045Z,-4.66
2023-01-08T07:25:21.824Z,-5.63
2023-01-08T07:27:51.281Z,-4.71
2023-01-08T07:30:29.770Z,-4.37
2023-01-08T07:33:01.413Z,-4.98
2023-01-08T07:35:32.528Z,-4.11
2023-01-08T07:38:15.074Z,-4.39
2023-01-08T07:40:46.935Z,-7.20
2023-01-08T07:43:17.157Z,-4.50
2023-01-08T07:45:57.751Z,-3.95
2023-01-08T07:48:29.684Z,-6.40
2023-01-08T07:51:06.309Z,-4.57
2023-01-08T07:53:36.259Z,-4.51
2023-01-08T07:56:07.887Z,-4.45
2023-01-08T07:58:38.111Z,-3.84
2023-01-08T08:01:11.509Z,-4.10
2023-01-08T08:03:41.354Z,-3.58
2023-01-08T08:06:12.089Z,-3.66
2023-01-08T08:08:44.344Z,-3.48
2023-01-08T08:11:14.437Z,-3.69
2023-01-08T08:13:45.204Z,-3.83
2023-01-08T08:16:14.970Z,-4.25
2023-01-08T08:18:44.491Z,-3.79
2023-01-08T08:21:14.977Z,-4.14
2023-01-08T08:23:44.301Z,-3.96
2023-01-08T08:26:14.028Z,-3.77
2023-01-08T08:28:43.482Z,-3.30
2023-01-08T08:31:15.922Z,-3.41
2023-01-08T08:33:45.410Z,-3.59
2023-01-08T08:36:16.130Z,-3.85
2023-01-08T08:38:46.415Z,-3.36
2023-01-08T08:41:18.100Z,-3.30
2023-01-08T08:43:54.552Z,-2.72
2023-01-08T08:46:25.974Z,-3.28
2023-01-08T08:48:58.512Z,-3.52
2023-01-08T08:51:30.037Z,-3.18
2023-01-08T08:54:00.897Z,-3.23
2023-01-08T08:56:31.104Z,-3.02
2023-01-08T08:59:01.207Z,-3.02
2023-01-08T09:01:31.543Z,-3.52
2023-01-08T09:04:01.018Z,-2.62
2023-01-08T09:06:32.192Z,-2.32
2023-01-08T09:09:01.886Z,-3.00
2023-01-08T09:11:32.626Z,-3.58
2023-01-08T09:14:02.417Z,-3.79
2023-01-08T09:16:33.181Z,-3.48
2023-01-08T09:19:02.542Z,-3.29
2023-01-08T09:21:33.429Z,-3.20
2023-01-08T09:24:03.105Z,-3.56
2023-01-08T09:26:33.006Z,-3.20
2023-01-08T09:29:02.571Z,-3.00
2023-01-08T09:31:32.518Z,-4.08
2023-01-08T09:34:02.640Z,-3.87
2023-01-08T09:36:33.537Z,-2.93
2023-01-08T09:39:03.103Z,-3.25
2023-01-08T09:41:36.193Z,-3.06
2023-01-08T09:44:08.431Z,-3.42
2023-01-08T09:46:38.466Z,-3.15
2023-01-08T09:49:12.748Z,-3.18
2023-01-08T09:51:44.340Z,-2.59
2023-01-08T09:54:17.764Z,-2.23
2023-01-08T09:56:48.617Z,-2.90
2023-01-08T09:59:21.481Z,-2.83
2023-01-08T10:01:52.376Z,-2.73
2023-01-08T10:04:23.414Z,-2.62
2023-01-08T10:06:57.636Z,-2.77
2023-01-08T10:09:29.611Z,-4.04
2023-01-08T10:12:04.972Z,-3.14
2023-01-08T10:14:37.748Z,-2.72
2023-01-08T10:17:15.968Z,-2.97
2023-01-08T10:19:46.194Z,-2.68
2023-01-08T10:22:21.169Z,-2.97
2023-01-08T10:24:54.127Z,-3.12
2023-01-08T10:27:25.278Z,-2.57
2023-01-08T10:29:55.029Z,-2.50
2023-01-08T10:32:30.944Z,-2.76
2023-01-08T10:35:04.708Z,-2.59
2023-01-08T10:37:41.149Z,-2.52
2023-01-08T10:40:24.970Z,-3.09
2023-01-08T10:42:56.291Z,-2.30
2023-01-08T10:45:27.820Z,-2.72
2023-01-08T10:48:02.281Z,-2.53
2023-01-08T10:50:34.539Z,-1.77
2023-01-08T10:53:23.344Z,-2.45
2023-01-08T10:56:00.195Z,-2.36
2023-01-08T10:58:30.405Z,-2.48
2023-01-08T11:01:12.301Z,-2.51
2023-01-08T11:03:46.046Z,-2.40
2023-01-08T11:06:24.299Z,-2.38
2023-01-08T11:08:58.060Z,-2.59
2023-01-08T11:11:34.817Z,-2.47
2023-01-08T11:14:08.034Z,-1.93
2023-01-08T11:16:40.850Z,-2.28
2023-01-08T11:19:19.451Z,-1.94
2023-01-08T11:22:02.237Z,-1.72
2023-01-08T11:25:24.841Z,-2.12
2023-01-08T11:28:00.744Z,-1.83
2023-01-08T11:30:34.214Z,-2.01
2023-01-08T11:33:09.874Z,-2.48
2023-01-08T11:35:42.433Z,-1.62
2023-01-08T11:38:14.470Z,-1.62
2023-01-08T11:40:51.969Z,-1.66
2023-01-08T11:43:32.561Z,-1.73
2023-01-08T11:46:19.705Z,-2.11
2023-01-08T11:49:12.389Z,-2.98
2023-01-08T11:51:58.671Z,-2.03
2023-01-08T11:54:47.419Z,-2.70
2023-01-08T11:57:37.611Z,-3.53
2023-01-08T12:00:25.899Z,-2.38
2023-01-08T12:02:57.809Z,-2.40
2023-01-08T12:05:32.105Z,-2.17
2023-01-08T12:08:08.120Z,-2.43
2023-01-08T12:10:57.213Z,-1.85
2023-01-08T12:13:42.712Z,-1.16
2023-01-08T12:16:27.521Z,-1.72
2023-01-08T12:19:12.813Z,-1.88
2023-01-08T12:21:58.730Z,-3.04
2023-01-08T12:24:51.497Z,-5.21
2023-01-08T12:27:56.947Z,-5.15
2023-01-08T12:30:38.610Z,-2.54
2023-01-08T12:33:13.172Z,-4.17
2023-01-08T12:35:47.895Z,-1.93
2023-01-08T12:38:23.897Z,-2.01
2023-01-08T12:40:57.708Z,-3.55
2023-01-08T12:43:33.540Z,-2.74
2023-01-08T12:46:05.103Z,-2.61
2023-01-08T12:48:37.655Z,-2.57
2023-01-08T12:51:18.396Z,-2.26
2023-01-08T12:53:59.478Z,-2.52
2023-01-08T12:56:37.950Z,-2.57
2023-01-08T12:59:26.344Z,-3.04
2023-01-08T13:02:05.260Z,-3.78
2023-01-08T13:04:43.826Z,-2.28
2023-01-08T13:07:19.835Z,-2.12
2023-01-08T13:09:57.016Z,-2.77
2023-01-08T13:12:35.287Z,-3.25
2023-01-08T13:15:06.593Z,-3.38
2023-01-08T13:17:52.725Z,-2.93
2023-01-08T13:20:27.724Z,-3.36
2023-01-08T13:23:00.437Z,-3.12
2023-01-08T13:25:34.989Z,-3.04
2023-01-08T13:28:27.823Z,-3.33
2023-01-08T13:31:08.919Z,-3.62
2023-01-08T13:33:42.053Z,-3.05
2023-01-08T13:36:25.379Z,-3.72
2023-01-08T13:39:03.924Z,-3.26
2023-01-08T13:41:40.199Z,-3.12
2023-01-08T13:44:27.947Z,-3.15
2023-01-08T13:46:59.915Z,-3.33
2023-01-08T13:49:35.159Z,-3.20
2023-01-08T13:52:28.247Z,-3.48
2023-01-08T13:54:59.126Z,-4.38
2023-01-08T13:57:38.880Z,-4.64
2023-01-08T14:00:20.983Z,-5.57
2023-01-08T14:03:33.857Z,-6.87
2023-01-08T14:06:19.405Z,-5.71
2023-01-08T14:09:10.367Z,-5.34
2023-01-08T14:11:59.331Z,-6.75
2023-01-08T14:14:56.841Z,-6.68
2023-01-08T14:17:39.287Z,-3.96
2023-01-08T14:20:22.489Z,-6.74
2023-01-08T14:23:10.631Z,-7.46
2023-01-08T14:26:14.531Z,-7.50
2023-01-08T14:29:29.482Z,-4.30
2023-01-08T14:32:20.605Z,-4.31
2023-01-08T14:35:00.941Z,-3.98
2023-01-08T14:37:38.441Z,-7.03
2023-01-08T14:40:22.535Z,-6.78
2023-01-08T14:43:17.129Z,-7.18
2023-01-08T14:46:12.332Z,-7.40
2023-01-08T14:48:55.153Z,-6.90
2023-01-08T14:51:38.892Z,-6.99
2023-01-08T14:54:31.930Z,-6.09
2023-01-08T14:57:04.812Z,-6.14
2023-01-08T14:59:38.606Z,-6.02
2023-01-08T15:02:10.379Z,-4.41
2023-01-08T15:04:40.901Z,-4.69
2023-01-08T15:07:22.774Z,-5.09
2023-01-08T15:09:58.400Z,-5.07
2023-01-08T15:12:32.503Z,-4.98
2023-01-08T15:15:12.903Z,-4.93
2023-01-08T15:17:42.884Z,-4.91
2023-01-08T15:20:18.774Z,-4.77
2023-01-08T15:22:49.207Z,-4.46
2023-01-08T15:25:26.232Z,-4.50
2023-01-08T15:27:59.828Z,-4.26
2023-01-08T15:30:36.391Z,-6.72
2023-01-08T15:33:20.616Z,-4.70
2023-01-08T15:35:51.004Z,-4.62
2023-01-08T15:38:23.858Z,-4.41
2023-01-08T15:40:54.565Z,-4.48
2023-01-08T15:43:24.010Z,-4.85
2023-01-08T15:45:55.426Z,-4.45
2023-01-08T15:48:26.952Z,-5.77
2023-01-08T15:51:16.447Z,-7.39
2023-01-08T15:54:14.233Z,-7.61
2023-01-08T15:56:51.509Z,-7.65
2023-01-08T15:59:28.576Z,-7.28
2023-01-08T16:02:02.128Z,-5.76
2023-01-08T16:04:32.935Z,-5.64
2023-01-08T16:07:03.158Z,-6.19
2023-01-08T16:09:33.584Z,-7.52
2023-01-08T16:12:40.956Z,-4.84
2023-01-08T16:15:19.476Z,-4.77
2023-01-08T16:18:04.739Z,-7.13
2023-01-08T16:20:40.205Z,-4.92
2023-01-08T16:23:10.609Z,-7.48
2023-01-08T16:25:54.274Z,-7.48
2023-01-08T16:29:00.027Z,-4.74
2023-01-08T16:31:45.337Z,-7.62
2023-01-08T16:34:22.503Z,-6.56
2023-01-08T16:36:53.667Z,-4.96
2023-01-08T16:39:24.434Z,-6.15
2023-01-08T16:41:55.490Z,-5.87
2023-01-08T16:44:28.959Z,-6.48
2023-01-08T16:47:01.306Z,-5.68
2023-01-08T16:49:34.124Z,-5.56
2023-01-08T16:52:07.048Z,-6.57
2023-01-08T16:54:37.541Z,-8.02
2023-01-08T16:57:09.234Z,-5.88
2023-01-08T16:59:40.377Z,-5.69
2023-01-08T17:02:14.128Z,-5.19
2023-01-08T17:04:44.790Z,-4.83
2023-01-08T17:07:15.903Z,-4.70
2023-01-08T17:09:47.976Z,-4.95
2023-01-08T17:12:22.721Z,-4.96
2023-01-08T17:14:52.959Z,-5.32
2023-01-08T17:17:23.694Z,-4.77
2023-01-08T17:20:27.815Z,-4.79
2023-01-08T17:23:01.588Z,-5.24
2023-01-08T17:25:40.975Z,-5.00
2023-01-08T17:28:11.403Z,-4.84
2023-01-08T17:30:42.079Z,-4.81
2023-01-08T17:33:14.676Z,-5.71
2023-01-08T17:35:48.861Z,-5.72
2023-01-08T17:38:18.893Z,-5.04
2023-01-08T17:40:53.442Z,-5.11
2023-01-08T17:43:23.258Z,-6.70
2023-01-08T17:45:54.052Z,-6.84
2023-01-08T17:48:27.159Z,-6.23
2023-01-08T17:51:00.162Z,-7.16
2023-01-08T17:53:33.443Z,-7.32
2023-01-08T17:56:08.152Z,-6.40
2023-01-08T17:58:38.377Z,-8.29
2023-01-08T18:01:11.753Z,-5.15
2023-01-08T18:03:41.971Z,-5.12
2023-01-08T18:06:15.458Z,-5.39
2023-01-08T18:08:45.580Z,-4.98
2023-01-08T18:11:15.504Z,-5.15
2023-01-08T18:13:46.311Z,-5.17
2023-01-08T18:16:20.969Z,-4.94
2023-01-08T18:18:51.175Z,-7.93
2023-01-08T18:21:23.055Z,-7.57
2023-01-08T18:23:52.867Z,-5.29
2023-01-08T18:26:24.823Z,-5.67
2023-01-08T18:28:54.641Z,-5.20
2023-01-08T18:31:24.650Z,-4.96
2023-01-08T18:33:54.796Z,-5.06
2023-01-08T18:36:26.078Z,-5.06
2023-01-08T18:38:57.755Z,-5.24
2023-01-08T18:41:45.639Z,-5.18
2023-01-08T18:44:15.429Z,-5.57
2023-01-08T18:46:47.891Z,-5.27
2023-01-08T18:49:23.399Z,-5.47
2023-01-08T18:51:54.852Z,-5.59
2023-01-08T18:54:24.995Z,-5.62
2023-01-08T18:56:54.748Z,-5.64
2023-01-08T18:59:27.482Z,-6.60
2023-01-08T19:01:57.738Z,-5.28
2023-01-08T19:04:29.401Z,-5.48
2023-01-08T19:07:00.592Z,-5.74
2023-01-08T19:09:30.411Z,-5.26
2023-01-08T19:12:01.442Z,-5.01
2023-01-08T19:14:33.640Z,-5.12
2023-01-08T19:17:03.153Z,-5.40
2023-01-08T19:19:33.709Z,-5.32
2023-01-08T19:22:09.088Z,-5.34
2023-01-08T19:24:39.153Z,-5.46
2023-01-08T19:27:09.163Z,-5.33
2023-01-08T19:29:39.049Z,-5.57
2023-01-08T19:32:09.956Z,-5.35
2023-01-08T19:34:42.706Z,-5.22
2023-01-08T19:37:15.252Z,-5.53
2023-01-08T19:39:45.283Z,-5.16
2023-01-08T19:42:32.590Z,-5.44
2023-01-08T19:45:01.665Z,-5.25
2023-01-08T19:47:31.497Z,-5.24
2023-01-08T19:50:00.928Z,-5.89
2023-01-08T19:52:32.605Z,-5.30
2023-01-08T19:55:02.064Z,-5.39
2023-01-08T19:57:32.635Z,-6.26
2023-01-08T20:00:02.757Z,-5.34
2023-01-08T20:02:41.572Z,-5.01
2023-01-08T20:05:12.351Z,-4.97
2023-01-08T20:07:43.537Z,-5.21
2023-01-08T20:10:16.957Z,-4.82
2023-01-08T20:13:12.916Z,-5.02
2023-01-08T20:15:43.635Z,-5.04
2023-01-08T20:18:13.967Z,-5.26
2023-01-08T20:20:43.926Z,-4.85
2023-01-08T20:23:15.439Z,-4.68
2023-01-08T20:25:46.028Z,-4.74
2023-01-08T20:28:16.042Z,-5.27
2023-01-08T20:30:45.856Z,-4.84
2023-01-08T20:33:18.891Z,-4.71
2023-01-08T20:35:49.081Z,-4.90
2023-01-08T20:38:20.951Z,-5.08
2023-01-08T20:40:58.418Z,-4.63
2023-01-08T20:43:28.335Z,-4.68
2023-01-08T20:45:59.010Z,-4.99
2023-01-08T20:48:34.424Z,-4.57
2023-01-08T20:51:07.571Z,-4.25
2023-01-08T20:53:41.667Z,-4.57
2023-01-08T20:56:14.120Z,-4.83
2023-01-08T20:58:46.030Z,-4.77
2023-01-08T21:01:21.418Z,-5.65
2023-01-08T21:03:55.345Z,-4.65
2023-01-08T21:06:28.320Z,-4.84
2023-01-08T21:09:01.120Z,-4.80
2023-01-08T21:11:32.032Z,-6.38
2023-01-08T21:14:01.954Z,-5.78
2023-01-08T21:16:35.024Z,-5.38
2023-01-08T21:19:08.273Z,-5.38
2023-01-08T21:21:40.207Z,-5.46
2023-01-08T21:24:14.054Z,-5.47
2023-01-08T21:26:45.509Z,-5.11
2023-01-08T21:29:17.100Z,-4.92
2023-01-08T21:31:46.992Z,-5.46
2023-01-08T21:34:16.645Z,-5.32
2023-01-08T21:36:46.053Z,-4.73
2023-01-08T21:39:16.723Z,-6.60
2023-01-08T21:42:04.395Z,-4.77
2023-01-08T21:44:52.360Z,-4.98
2023-01-08T21:47:22.433Z,-4.95
2023-01-08T21:49:51.983Z,-5.15
2023-01-08T21:52:39.197Z,-4.82
2023-01-08T21:55:10.773Z,-4.92
2023-01-08T21:57:40.770Z,-4.90
2023-01-08T22:00:12.420Z,-4.87
2023-01-08T22:02:43.208Z,-4.64
2023-01-08T22:05:13.485Z,-6.84
2023-01-08T22:07:44.151Z,-5.93
2023-01-08T22:10:15.566Z,-6.11
2023-01-08T22:12:46.693Z,-5.87
2023-01-08T22:15:16.425Z,-4.88
2023-01-08T22:17:46.233Z,-4.33
2023-01-08T22:20:15.806Z,-4.41
2023-01-08T22:22:47.196Z,-5.35
2023-01-08T22:25:18.890Z,-4.77
2023-01-08T22:27:51.527Z,-4.84
2023-01-08T22:30:21.850Z,-4.61
2023-01-08T22:32:51.447Z,-4.36
2023-01-08T22:35:21.253Z,-4.51
2023-01-08T22:37:51.035Z,-4.29
2023-01-08T22:40:22.137Z,-4.72
2023-01-08T22:42:52.151Z,-4.44
2023-01-08T22:45:21.641Z,-4.94
2023-01-08T22:47:51.658Z,-4.91
2023-01-08T22:50:21.163Z,-4.79
2023-01-08T22:52:50.349Z,-4.73
2023-01-08T22:55:24.635Z,-4.48
2023-01-08T22:57:54.076Z,-4.52
2023-01-08T23:00:23.713Z,-4.54
2023-01-08T23:02:53.651Z,-4.44
2023-01-08T23:05:23.491Z,-4.48
2023-01-08T23:07:56.258Z,-4.94
2023-01-08T23:10:27.533Z,-4.51
2023-01-08T23:12:57.377Z,-4.50
2023-01-08T23:15:26.850Z,-4.62
2023-01-08T23:17:56.626Z,-4.81
2023-01-08T23:20:26.739Z,-4.69
2023-01-08T23:23:13.982Z,-4.80
2023-01-08T23:25:59.218Z,-4.17
2023-01-08T23:28:47.417Z,-4.45
2023-01-08T23:31:32.461Z,-4.48
2023-01-08T23:34:05.583Z,-4.78
2023-01-08T23:36:53.599Z,-5.23
2023-01-08T23:39:26.691Z,-4.34
2023-01-08T23:41:57.426Z,-4.24
2023-01-08T23:44:26.906Z,-4.32
2023-01-08T23:46:56.949Z,-4.37
2023-01-08T23:49:26.342Z,-4.65
2023-01-08T23:51:56.045Z,-4.28
2023-01-08T23:54:25.363Z,-4.20
2023-01-08T23:56:56.344Z,-4.07
2023-01-08T23:59:25.932Z,-4.27
